createdAt,value
2018-12-05T00:00:27.061Z,6.37
2018-12-05T00:01:37.369Z,6.4
2018-12-05T00:02:47.449Z,6.29
2018-12-05T00:03:57.509Z,6.34
2018-12-05T00:05:07.781Z,6.29
2018-12-05T00:06:17.612Z,6.33
2018-12-05T00:07:27.673Z,6.42
2018-12-05T00:08:37.501Z,6.39
2018-12-05T00:09:47.583Z,6.36
2018-12-05T00:10:57.661Z,6.34
2018-12-05T00:12:08.231Z,6.44
2018-12-05T00:13:18.291Z,6.37
2018-12-05T00:14:28.106Z,6.42
2018-12-05T00:15:38.171Z,6.46
2018-12-05T00:16:48.242Z,6.37
2018-12-05T00:17:58.326Z,6.36
2018-12-05T00:19:10.560Z,6.34
2018-12-05T00:20:20.646Z,6.31
2018-12-05T00:21:30.710Z,6.34
2018-12-05T00:22:40.837Z,6.49
2018-12-05T00:23:50.937Z,6.4
2018-12-05T00:25:01.064Z,6.42
2018-12-05T00:26:10.892Z,6.37
2018-12-05T00:27:20.981Z,6.39
2018-12-05T00:28:31.058Z,6.39
2018-12-05T00:29:41.274Z,6.36
2018-12-05T00:30:51.356Z,6.4
2018-12-05T00:32:01.179Z,6.36
2018-12-05T00:33:11.250Z,6.36
2018-12-05T00:34:22.573Z,6.29
2018-12-05T00:35:32.648Z,6.44
2018-12-05T00:36:42.715Z,6.39
2018-12-05T00:37:52.991Z,6.37
2018-12-05T00:39:03.075Z,6.34
2018-12-05T00:40:12.900Z,6.37
2018-12-05T00:41:22.996Z,6.36
2018-12-05T00:42:33.308Z,6.39
2018-12-05T00:43:43.355Z,6.31
2018-12-05T00:44:53.436Z,6.28
2018-12-05T00:46:03.328Z,6.39
2018-12-05T00:47:13.136Z,6.37
2018-12-05T00:48:23.224Z,6.33
2018-12-05T00:49:33.291Z,6.33
2018-12-05T00:50:43.367Z,6.31
2018-12-05T00:51:53.398Z,6.28
2018-12-05T00:53:04.406Z,6.34
2018-12-05T00:54:17.090Z,6.26
2018-12-05T00:55:31.035Z,6.37
2018-12-05T00:56:43.502Z,6.37
2018-12-05T00:57:53.621Z,6.29
2018-12-05T00:59:05.192Z,6.36
2018-12-05T01:00:15.003Z,6.34
2018-12-05T01:01:24.794Z,6.28
2018-12-05T01:02:34.697Z,6.34
2018-12-05T01:03:44.508Z,6.43
2018-12-05T01:04:54.345Z,6.34
2018-12-05T01:06:04.428Z,6.4
2018-12-05T01:07:14.505Z,6.34
2018-12-05T01:08:24.679Z,6.29
2018-12-05T01:09:34.748Z,6.34
2018-12-05T01:10:45.724Z,6.37
2018-12-05T01:11:57.299Z,6.29
2018-12-05T01:13:07.371Z,6.2
2018-12-05T01:14:17.519Z,6.21
2018-12-05T01:15:27.585Z,6.17
2018-12-05T01:16:37.661Z,6.09
2018-12-05T01:17:48.083Z,6.21
2018-12-05T01:18:58.133Z,6.18
2018-12-05T01:20:08.194Z,6.14
2018-12-05T01:21:18.267Z,6.13
2018-12-05T01:22:28.074Z,6.07
2018-12-05T01:23:38.127Z,6.05
2018-12-05T01:24:48.184Z,6.15
2018-12-05T01:25:58.244Z,6.24
2018-12-05T01:27:10.087Z,6.21
2018-12-05T01:28:20.156Z,6.18
2018-12-05T01:29:30.231Z,6.17
2018-12-05T01:30:40.301Z,6.24
2018-12-05T01:31:51.950Z,6.06
2018-12-05T01:33:03.976Z,6.18
2018-12-05T01:34:14.027Z,6.2
2018-12-05T01:35:24.087Z,6.15
2018-12-05T01:36:33.903Z,6.17
2018-12-05T01:37:44.004Z,6.17
2018-12-05T01:38:54.304Z,6.17
2018-12-05T01:40:04.619Z,6.17
2018-12-05T01:41:14.706Z,6.1
2018-12-05T01:42:25.110Z,6.18
2018-12-05T01:43:35.177Z,6.05
2018-12-05T01:44:44.975Z,6.1
2018-12-05T01:45:55.060Z,6.07
2018-12-05T01:47:07.630Z,6.09
2018-12-05T01:48:17.704Z,6.05
2018-12-05T01:49:27.822Z,6.09
2018-12-05T01:50:37.810Z,6.02
2018-12-05T01:51:47.855Z,6.02
2018-12-05T01:52:58.137Z,6.03
2018-12-05T01:54:08.194Z,6.05
2018-12-05T01:55:18.264Z,5.99
2018-12-05T01:56:28.337Z,6.05
2018-12-05T01:57:38.396Z,6.09
2018-12-05T01:58:48.201Z,6
2018-12-05T01:59:58.006Z,6.02
2018-12-05T02:01:11.130Z,6.05
2018-12-05T02:02:21.188Z,6.02
2018-12-05T02:03:31.272Z,5.92
2018-12-05T02:04:41.334Z,5.89
2018-12-05T02:05:51.391Z,5.91
2018-12-05T02:07:03.520Z,6.02
2018-12-05T02:08:13.582Z,6
2018-12-05T02:09:23.648Z,5.96
2018-12-05T02:10:33.716Z,5.98
2018-12-05T02:11:43.799Z,5.89
2018-12-05T02:12:53.857Z,6.02
2018-12-05T02:14:03.882Z,5.98
2018-12-05T02:15:13.882Z,6.03
2018-12-05T02:16:23.869Z,5.98
2018-12-05T02:17:34.159Z,6.02
2018-12-05T02:18:44.817Z,5.96
2018-12-05T02:19:55.057Z,5.98
2018-12-05T02:21:04.907Z,5.91
2018-12-05T02:22:14.880Z,5.96
2018-12-05T02:23:25.134Z,5.95
2018-12-05T02:24:35.192Z,6.05
2018-12-05T02:25:45.619Z,6.07
2018-12-05T02:26:55.633Z,5.99
2018-12-05T02:28:05.627Z,6.02
2018-12-05T02:29:15.602Z,5.96
2018-12-05T02:30:25.600Z,5.88
2018-12-05T02:31:35.611Z,6.05
2018-12-05T02:32:45.913Z,5.91
2018-12-05T02:33:55.908Z,5.95
2018-12-05T02:35:05.929Z,5.98
2018-12-05T02:36:15.980Z,5.92
2018-12-05T02:37:26.097Z,5.81
2018-12-05T02:38:35.597Z,5.81
2018-12-05T02:39:45.608Z,5.73
2018-12-05T02:40:55.644Z,5.81
2018-12-05T02:42:05.733Z,5.67
2018-12-05T02:43:16.252Z,5.69
2018-12-05T02:44:26.337Z,5.69
2018-12-05T02:45:37.569Z,5.69
2018-12-05T02:46:47.600Z,5.62
2018-12-05T02:47:57.661Z,5.55
2018-12-05T02:49:07.736Z,5.64
2018-12-05T02:50:18.005Z,5.6
2018-12-05T02:51:28.093Z,5.45
2018-12-05T02:52:38.169Z,5.46
2018-12-05T02:53:48.341Z,5.52
2018-12-05T02:54:58.395Z,5.51
2018-12-05T02:56:08.778Z,5.52
2018-12-05T02:57:18.596Z,5.54
2018-12-05T02:58:28.666Z,5.51
2018-12-05T02:59:38.742Z,5.49
2018-12-05T03:00:48.805Z,5.52
2018-12-05T03:01:58.869Z,5.54
2018-12-05T03:03:08.965Z,5.46
2018-12-05T03:35:03.953Z,2.81
2018-12-05T03:36:13.998Z,2.76
2018-12-05T03:37:24.052Z,2.83
2018-12-05T03:38:34.128Z,2.73
2018-12-05T03:39:44.477Z,2.77
2018-12-05T03:40:54.607Z,2.8
2018-12-05T03:42:04.778Z,2.9
2018-12-05T03:43:14.618Z,2.93
2018-12-05T03:44:24.688Z,3.08
2018-12-05T03:45:36.565Z,3.19
2018-12-05T03:46:46.634Z,3.34
2018-12-05T03:47:56.721Z,3.48
2018-12-05T03:49:06.525Z,3.51
2018-12-05T03:50:16.323Z,3.69
2018-12-05T03:51:26.373Z,3.79
2018-12-05T03:52:36.232Z,3.93
2018-12-05T03:53:46.284Z,3.92
2018-12-05T03:54:56.098Z,3.99
2018-12-05T03:56:06.182Z,4.08
2018-12-05T03:57:15.998Z,4.12
2018-12-05T03:58:26.086Z,4.15
2018-12-05T03:59:36.144Z,4.24
2018-12-05T04:00:46.228Z,4.35
2018-12-05T04:01:56.040Z,4.36
2018-12-05T04:03:07.593Z,4.47
2018-12-05T04:04:17.718Z,4.48
2018-12-05T04:05:27.781Z,4.51
2018-12-05T04:06:37.953Z,4.54
2018-12-05T04:07:48.118Z,4.6
2018-12-05T04:08:58.273Z,4.68
2018-12-05T04:10:11.022Z,4.71
2018-12-05T04:11:21.114Z,4.75
2018-12-05T04:12:31.204Z,4.75
2018-12-05T04:13:48.474Z,4.65
2018-12-05T04:14:58.554Z,4.69
2018-12-05T04:16:10.802Z,4.69
2018-12-05T04:17:20.869Z,4.71
2018-12-05T04:18:30.922Z,4.75
2018-12-05T04:19:40.997Z,4.66
2018-12-05T04:20:51.103Z,4.75
2018-12-05T04:22:00.902Z,4.84
2018-12-05T04:23:10.995Z,4.76
2018-12-05T04:24:21.058Z,4.74
2018-12-05T04:25:31.131Z,4.83
2018-12-05T04:26:41.179Z,4.71
2018-12-05T04:27:51.252Z,4.79
2018-12-05T04:29:01.079Z,4.79
2018-12-05T04:30:10.887Z,4.87
2018-12-05T04:31:20.923Z,4.85
2018-12-05T04:32:30.717Z,4.92
2018-12-05T04:33:40.798Z,4.95
2018-12-05T04:34:50.866Z,4.97
2018-12-05T04:36:02.617Z,5.02
2018-12-05T04:37:12.744Z,5.05
2018-12-05T04:38:23.122Z,4.97
2018-12-05T04:39:33.186Z,5.02
2018-12-05T04:40:43.242Z,5.08
2018-12-05T04:41:53.336Z,4.98
2018-12-05T04:43:03.653Z,5.05
2018-12-05T04:44:14.393Z,5.05
2018-12-05T04:45:24.215Z,5.02
2018-12-05T04:46:34.273Z,5.02
2018-12-05T04:47:44.072Z,4.95
2018-12-05T04:48:54.165Z,5.08
2018-12-05T04:50:06.048Z,4.98
2018-12-05T04:51:16.230Z,4.95
2018-12-05T04:52:26.313Z,5.09
2018-12-05T04:53:36.137Z,5.05
2018-12-05T04:54:46.203Z,5.1
2018-12-05T04:55:56.298Z,5.08
2018-12-05T04:57:07.273Z,5.09
2018-12-05T04:58:17.177Z,5.06
2018-12-05T04:59:27.253Z,5.02
2018-12-05T05:00:37.115Z,5
2018-12-05T05:01:47.192Z,5.08
2018-12-05T05:02:57.292Z,5.05
2018-12-05T05:04:07.415Z,4.97
2018-12-05T05:05:17.209Z,4.98
2018-12-05T05:06:27.298Z,4.9
2018-12-05T05:07:37.475Z,4.85
2018-12-05T05:08:47.593Z,4.94
2018-12-05T05:09:57.659Z,4.97
2018-12-05T05:11:07.723Z,4.94
2018-12-05T05:12:17.793Z,4.97
2018-12-05T05:13:27.848Z,4.91
2018-12-05T05:14:38.117Z,5.02
2018-12-05T05:15:48.642Z,4.95
2018-12-05T05:16:58.695Z,5
2018-12-05T05:18:08.766Z,5.03
2018-12-05T05:19:18.849Z,4.98
2018-12-05T05:20:28.664Z,4.97
2018-12-05T05:21:38.724Z,5.03
2018-12-05T05:22:48.880Z,4.98
2018-12-05T05:23:59.036Z,4.98
2018-12-05T05:25:09.117Z,4.97
2018-12-05T05:26:19.195Z,5.03
2018-12-05T05:27:29.254Z,4.94
2018-12-05T05:28:39.359Z,4.98
2018-12-05T05:29:49.427Z,4.9
2018-12-05T05:30:59.493Z,4.94
2018-12-05T05:32:10.140Z,4.94
2018-12-05T05:33:20.209Z,4.88
2018-12-05T05:34:30.325Z,4.83
2018-12-05T05:35:40.387Z,4.97
2018-12-05T05:36:50.463Z,4.94
2018-12-05T05:38:00.533Z,4.85
2018-12-05T05:39:10.883Z,4.9
2018-12-05T05:40:20.682Z,5
2018-12-05T05:41:30.830Z,5.05
2018-12-05T05:42:40.886Z,4.95
2018-12-05T05:43:50.944Z,4.94
2018-12-05T05:45:00.554Z,4.94
2018-12-05T05:46:10.617Z,4.94
2018-12-05T05:47:20.774Z,4.87
2018-12-05T05:48:30.823Z,4.84
2018-12-05T05:49:40.903Z,4.87
2018-12-05T05:50:50.782Z,4.87
2018-12-05T05:52:00.855Z,4.84
2018-12-05T05:53:10.973Z,4.85
2018-12-05T05:54:21.036Z,4.88
2018-12-05T05:55:30.836Z,4.83
2018-12-05T05:56:40.991Z,4.85
2018-12-05T05:57:51.066Z,4.85
2018-12-05T05:59:03.424Z,4.9
2018-12-05T06:00:13.723Z,4.84
2018-12-05T06:01:23.783Z,4.87
2018-12-05T06:02:33.656Z,4.9
2018-12-05T06:03:43.491Z,4.91
2018-12-05T06:04:53.556Z,4.84
2018-12-05T06:06:03.355Z,4.97
2018-12-05T06:07:13.349Z,4.85
2018-12-05T06:08:23.158Z,4.91
2018-12-05T06:09:33.244Z,4.98
2018-12-05T06:10:43.290Z,4.97
2018-12-05T06:11:53.097Z,4.95
2018-12-05T06:13:05.415Z,4.97
2018-12-05T06:14:15.476Z,5.06
2018-12-05T06:15:25.523Z,5.05
2018-12-05T06:16:35.657Z,5.03
2018-12-05T06:17:45.730Z,5.08
2018-12-05T06:18:56.640Z,5.06
2018-12-05T06:20:08.427Z,5.03
2018-12-05T06:21:18.483Z,5.12
2018-12-05T06:22:28.593Z,5.05
2018-12-05T06:23:38.669Z,5.12
2018-12-05T06:24:48.732Z,5.16
2018-12-05T06:25:58.811Z,5.06
2018-12-05T06:27:10.379Z,5.03
2018-12-05T06:28:20.322Z,5.09
2018-12-05T06:29:30.390Z,5.18
2018-12-05T06:30:40.459Z,5.21
2018-12-05T06:31:50.535Z,5.2
2018-12-05T06:33:00.787Z,5.23
2018-12-05T06:34:10.849Z,5.16
2018-12-05T06:35:20.925Z,5.15
2018-12-05T06:36:30.757Z,5.21
2018-12-05T06:37:40.886Z,5.2
2018-12-05T06:38:50.966Z,5.28
2018-12-05T06:40:00.818Z,5.31
2018-12-05T06:41:10.885Z,5.34
2018-12-05T06:42:21.194Z,5.31
2018-12-05T06:43:31.277Z,5.39
2018-12-05T06:44:41.359Z,5.28
2018-12-05T06:45:51.429Z,5.41
2018-12-05T06:47:02.739Z,5.37
2018-12-05T06:48:12.798Z,5.45
2018-12-05T06:49:22.878Z,5.44
2018-12-05T06:50:32.991Z,5.45
2018-12-05T06:51:43.041Z,5.46
2018-12-05T06:52:53.154Z,5.46
2018-12-05T06:54:03.960Z,5.62
2018-12-05T06:55:14.020Z,5.62
2018-12-05T06:56:24.066Z,5.62
2018-12-05T06:57:34.119Z,5.69
2018-12-05T06:58:44.334Z,5.59
2018-12-05T06:59:54.140Z,5.7
2018-12-05T07:01:04.196Z,5.67
2018-12-05T07:02:14.268Z,5.69
2018-12-05T07:03:24.384Z,5.84
2018-12-05T07:04:34.448Z,5.8
2018-12-05T07:05:44.505Z,5.85
2018-12-05T07:06:54.567Z,5.85
2018-12-05T07:08:05.610Z,5.81
2018-12-05T07:09:15.177Z,5.95
2018-12-05T07:10:25.243Z,5.91
2018-12-05T07:11:35.551Z,5.91
2018-12-05T07:12:45.373Z,5.98
2018-12-05T07:13:55.459Z,6.06
2018-12-05T07:15:06.977Z,6.05
2018-12-05T07:16:17.041Z,6.13
2018-12-05T07:17:27.224Z,6
2018-12-05T07:18:38.929Z,6.17
2018-12-05T07:19:49.200Z,6.15
2018-12-05T07:20:59.428Z,6.26
2018-12-05T07:22:09.261Z,6.42
2018-12-05T07:23:19.539Z,6.37
2018-12-05T07:24:29.599Z,6.34
2018-12-05T07:25:39.685Z,6.39
2018-12-05T07:26:49.880Z,6.54
2018-12-05T07:27:59.945Z,6.57
2018-12-05T07:29:09.770Z,6.57
2018-12-05T07:30:19.859Z,6.6
2018-12-05T07:31:37.139Z,6.75
2018-12-05T07:33:01.960Z,6.78
2018-12-05T07:34:12.051Z,6.76
2018-12-05T07:35:21.594Z,6.85
2018-12-05T07:36:32.913Z,6.98
2018-12-05T07:37:42.729Z,6.98
2018-12-05T07:38:52.554Z,7.05
2018-12-05T07:40:02.775Z,7.08
2018-12-05T07:41:12.842Z,6.97
2018-12-05T07:42:22.754Z,6.98
2018-12-05T07:43:32.818Z,7.04
2018-12-05T07:44:42.981Z,7.12
2018-12-05T07:45:53.053Z,7.19
2018-12-05T07:47:03.124Z,7.16
2018-12-05T07:48:12.948Z,7.22
2018-12-05T07:49:23.234Z,7.15
2018-12-05T07:50:33.309Z,7.13
2018-12-05T07:51:43.448Z,7.19
2018-12-05T07:52:53.526Z,7.22
2018-12-05T07:54:03.607Z,7.27
2018-12-05T07:55:13.416Z,7.29
2018-12-05T07:56:23.531Z,7.34
2018-12-05T07:57:34.544Z,7.36
2018-12-05T07:58:45.661Z,7.51
2018-12-05T07:59:55.769Z,7.52
2018-12-05T08:01:08.901Z,7.51
2018-12-05T08:02:18.760Z,7.59
2018-12-05T08:03:28.827Z,7.71
2018-12-05T08:04:38.959Z,7.78
2018-12-05T08:05:49.034Z,7.78
2018-12-05T08:06:59.106Z,7.92
2018-12-05T08:08:10.869Z,7.96
2018-12-05T08:09:21.047Z,7.95
2018-12-05T08:10:31.099Z,8.16
2018-12-05T08:11:41.171Z,8.22
2018-12-05T08:12:51.245Z,8.32
2018-12-05T08:14:02.944Z,8.22
2018-12-05T08:15:14.358Z,8.29
2018-12-05T08:16:24.446Z,8.28
2018-12-05T08:17:34.001Z,8.34
2018-12-05T08:18:43.810Z,8.49
2018-12-05T08:19:53.927Z,8.34
2018-12-05T08:21:03.995Z,8.49
2018-12-05T08:22:14.144Z,8.44
2018-12-05T08:23:24.203Z,8.44
2018-12-05T08:24:34.058Z,8.61
2018-12-05T08:25:45.778Z,8.53
2018-12-05T08:26:55.858Z,8.68
2018-12-05T08:28:05.929Z,8.72
2018-12-05T08:29:15.991Z,8.8
2018-12-05T08:30:26.065Z,8.85
2018-12-05T08:31:36.134Z,8.8
2018-12-05T08:32:46.211Z,8.79
2018-12-05T08:33:56.311Z,8.95
2018-12-05T08:35:06.368Z,8.87
2018-12-05T08:36:16.429Z,9.01
2018-12-05T08:37:26.321Z,8.95
2018-12-05T08:38:36.447Z,9.05
2018-12-05T08:39:46.530Z,9.08
2018-12-05T08:40:56.346Z,9.11
2018-12-05T08:42:07.212Z,9.19
2018-12-05T08:43:17.554Z,9.14
2018-12-05T08:44:27.648Z,9.2
2018-12-05T08:45:37.700Z,9.23
2018-12-05T08:46:47.782Z,9.2
2018-12-05T08:47:57.834Z,9.24
2018-12-05T08:49:10.682Z,9.32
2018-12-05T08:50:20.503Z,9.35
2018-12-05T08:51:30.324Z,9.42
2018-12-05T08:52:40.482Z,9.41
2018-12-05T08:53:50.552Z,9.44
2018-12-05T08:55:00.636Z,9.5
2018-12-05T08:56:10.706Z,9.48
2018-12-05T08:57:20.871Z,9.56
2018-12-05T08:58:31.163Z,9.6
2018-12-05T08:59:40.969Z,9.63
2018-12-05T09:00:51.029Z,9.59
2018-12-05T09:02:01.109Z,9.67
2018-12-05T09:03:11.167Z,9.7
2018-12-05T09:04:21.240Z,9.71
2018-12-05T09:05:31.049Z,9.71
2018-12-05T09:06:40.884Z,9.7
2018-12-05T09:07:50.463Z,9.71
2018-12-05T09:09:00.640Z,9.84
2018-12-05T09:10:10.763Z,9.84
2018-12-05T09:11:20.831Z,9.95
2018-12-05T09:12:30.891Z,9.81
2018-12-05T09:13:40.977Z,9.93
2018-12-05T09:14:50.814Z,9.88
2018-12-05T09:16:00.936Z,9.88
2018-12-05T09:17:11.003Z,9.82
2018-12-05T09:18:24.985Z,9.92
2018-12-05T09:19:39.044Z,10.1
2018-12-05T09:20:52.878Z,10.08
2018-12-05T09:22:07.877Z,10.11
2018-12-05T09:23:25.766Z,10.28
2018-12-05T09:24:42.711Z,10.31
2018-12-05T09:26:00.194Z,10.39
2018-12-05T09:27:17.081Z,10.42
2018-12-05T09:28:33.521Z,10.38
2018-12-05T09:29:50.678Z,10.39
2018-12-05T09:31:05.564Z,10.47
2018-12-05T09:32:15.707Z,10.52
2018-12-05T09:33:25.764Z,10.49
2018-12-05T09:34:35.866Z,10.44
2018-12-05T09:35:45.928Z,10.65
2018-12-05T09:36:56.056Z,10.7
2018-12-05T09:38:08.228Z,10.67
2018-12-05T09:39:18.038Z,10.63
2018-12-05T09:40:28.103Z,10.66
2018-12-05T09:41:38.162Z,10.79
2018-12-05T09:42:48.227Z,10.8
2018-12-05T09:43:58.296Z,10.85
2018-12-05T09:45:08.571Z,10.83
2018-12-05T09:46:18.374Z,10.92
2018-12-05T09:47:28.419Z,11.02
2018-12-05T09:48:38.485Z,10.94
2018-12-05T09:49:48.544Z,10.98
2018-12-05T09:50:58.606Z,11.05
2018-12-05T09:52:08.674Z,11.06
2018-12-05T09:53:18.485Z,11.12
2018-12-05T09:54:28.283Z,11.03
2018-12-05T09:55:37.862Z,11.09
2018-12-05T09:56:47.665Z,11.05
2018-12-05T09:57:57.742Z,11.12
2018-12-05T09:59:08.211Z,11.2
2018-12-05T10:00:18.844Z,11.2
2018-12-05T10:01:28.937Z,11.13
2018-12-05T10:02:38.990Z,11.27
2018-12-05T10:03:49.179Z,11.18
2018-12-05T10:04:59.237Z,11.23
2018-12-05T10:06:09.055Z,11.23
2018-12-05T10:07:19.134Z,11.31
2018-12-05T10:08:28.938Z,11.33
2018-12-05T10:09:39.145Z,11.35
2018-12-05T10:10:51.079Z,11.38
2018-12-05T10:12:01.147Z,11.34
2018-12-05T10:13:11.255Z,11.43
2018-12-05T10:14:21.360Z,11.51
2018-12-05T10:15:31.425Z,11.51
2018-12-05T10:16:41.526Z,11.56
2018-12-05T10:17:51.673Z,11.52
2018-12-05T10:19:02.301Z,11.56
2018-12-05T10:20:12.384Z,11.59
2018-12-05T10:21:22.453Z,11.66
2018-12-05T10:22:32.253Z,11.67
2018-12-05T10:23:42.356Z,11.71
2018-12-05T10:24:52.415Z,11.66
2018-12-05T10:26:02.229Z,11.81
2018-12-05T10:27:12.301Z,11.7
2018-12-05T10:28:22.476Z,11.71
2018-12-05T10:29:32.542Z,11.63
2018-12-05T10:30:42.601Z,11.68
2018-12-05T10:31:52.679Z,11.66
2018-12-05T10:33:02.505Z,11.71
2018-12-05T10:34:12.351Z,11.71
2018-12-05T10:35:22.292Z,11.68
2018-12-05T10:36:32.092Z,11.73
2018-12-05T10:37:42.151Z,11.88
2018-12-05T10:38:52.225Z,11.78
2018-12-05T10:40:02.312Z,11.84
2018-12-05T10:41:12.520Z,11.81
2018-12-05T10:42:22.341Z,11.79
2018-12-05T10:43:32.400Z,11.81
2018-12-05T10:44:42.460Z,11.76
2018-12-05T10:45:52.550Z,11.81
2018-12-05T10:47:02.788Z,11.81
2018-12-05T10:48:12.865Z,11.85
2018-12-05T10:49:22.979Z,11.88
2018-12-05T10:50:33.039Z,11.91
2018-12-05T10:51:43.134Z,11.89
2018-12-05T10:52:53.197Z,11.85
2018-12-05T10:54:03.244Z,12
2018-12-05T10:55:13.043Z,11.89
2018-12-05T10:56:23.096Z,11.95
2018-12-05T10:57:33.152Z,12
2018-12-05T10:58:43.266Z,12.03
2018-12-05T10:59:53.106Z,12.01
2018-12-05T11:01:03.181Z,12.05
2018-12-05T11:02:13.248Z,12.11
2018-12-05T11:03:23.948Z,12.19
2018-12-05T11:04:33.843Z,12.15
2018-12-05T11:05:43.917Z,12.19
2018-12-05T11:06:53.969Z,12.16
2018-12-05T11:08:04.048Z,12.25
2018-12-05T11:09:14.105Z,12.23
2018-12-05T11:10:24.229Z,12.23
2018-12-05T11:11:34.312Z,12.33
2018-12-05T11:12:44.126Z,12.36
2018-12-05T11:13:53.948Z,12.36
2018-12-05T11:15:04.034Z,12.43
2018-12-05T11:16:14.136Z,12.48
2018-12-05T11:17:23.957Z,12.52
2018-12-05T11:18:35.384Z,12.53
2018-12-05T11:19:45.191Z,12.53
2018-12-05T11:20:55.249Z,12.53
2018-12-05T11:22:05.698Z,12.55
2018-12-05T11:23:15.523Z,12.55
2018-12-05T11:24:25.343Z,12.65
2018-12-05T11:25:35.450Z,12.58
2018-12-05T11:26:44.988Z,12.61
2018-12-05T11:27:55.052Z,12.61
2018-12-05T11:29:08.304Z,12.66
2018-12-05T11:30:18.378Z,12.8
2018-12-05T11:31:28.441Z,12.78
2018-12-05T11:32:38.525Z,12.74
2018-12-05T11:33:48.586Z,12.77
2018-12-05T11:34:58.637Z,12.81
2018-12-05T11:36:09.030Z,12.81
2018-12-05T11:37:18.902Z,12.86
2018-12-05T11:38:28.720Z,12.74
2018-12-05T11:39:38.799Z,12.77
2018-12-05T11:40:48.597Z,12.81
2018-12-05T11:41:58.665Z,12.83
2018-12-05T11:43:08.476Z,12.76
2018-12-05T11:44:18.637Z,12.83
2018-12-05T11:45:28.589Z,12.83
2018-12-05T11:46:38.399Z,12.78
2018-12-05T11:47:48.478Z,12.88
2018-12-05T11:48:58.544Z,12.89
2018-12-05T11:50:10.940Z,12.83
2018-12-05T11:51:21.067Z,12.83
2018-12-05T11:52:31.166Z,12.86
2018-12-05T11:53:41.231Z,12.78
2018-12-05T11:54:51.033Z,12.69
2018-12-05T11:56:01.414Z,12.76
2018-12-05T11:57:11.475Z,12.71
2018-12-05T11:58:21.273Z,12.83
2018-12-05T11:59:31.324Z,12.89
2018-12-05T12:00:41.134Z,12.84
2018-12-05T12:01:50.962Z,12.91
2018-12-05T12:03:01.165Z,12.92
2018-12-05T12:04:11.251Z,12.91
2018-12-05T12:05:21.330Z,12.92
2018-12-05T12:06:32.291Z,12.91
2018-12-05T12:07:42.393Z,12.89
2018-12-05T12:08:52.528Z,12.89
2018-12-05T12:10:02.412Z,13.01
2018-12-05T12:11:12.488Z,13.27
2018-12-05T12:12:22.571Z,13.94
2018-12-05T12:13:32.637Z,15.13
2018-12-05T12:14:42.781Z,16.44
2018-12-05T12:15:52.855Z,17.71
2018-12-05T12:17:03.586Z,18.59
2018-12-05T12:18:13.662Z,19.12
2018-12-05T12:19:23.485Z,19.09
2018-12-05T12:20:33.574Z,18.47
2018-12-05T12:21:43.701Z,17.55
2018-12-05T12:22:53.820Z,16.72
2018-12-05T12:24:04.464Z,16.04
2018-12-05T12:25:14.915Z,15.45
2018-12-05T12:26:24.818Z,15.18
2018-12-05T12:27:41.097Z,15.65
2018-12-05T12:28:51.177Z,16.42
2018-12-05T12:30:01.268Z,17.3
2018-12-05T12:31:11.352Z,17.83
2018-12-05T12:32:21.154Z,18.35
2018-12-05T12:33:31.242Z,18.82
2018-12-05T12:34:41.307Z,19.12
2018-12-05T12:35:51.154Z,19.13
2018-12-05T12:37:02.385Z,18.53
2018-12-05T12:38:12.231Z,17.57
2018-12-05T12:39:22.062Z,16.7
2018-12-05T12:40:32.143Z,16.11
2018-12-05T12:41:42.417Z,15.81
2018-12-05T12:42:52.634Z,15.43
2018-12-05T12:44:02.513Z,15.08
2018-12-05T12:45:12.614Z,14.61
2018-12-05T12:46:22.715Z,14.42
2018-12-05T12:47:32.799Z,14.19
2018-12-05T12:48:44.397Z,13.99
2018-12-05T12:49:54.488Z,13.75
2018-12-05T12:51:04.588Z,13.66
2018-12-05T12:52:14.914Z,13.54
2018-12-05T12:53:25.234Z,13.45
2018-12-05T12:54:35.353Z,13.37
2018-12-05T12:55:45.219Z,13.16
2018-12-05T12:56:55.299Z,13.09
2018-12-05T12:58:08.189Z,12.91
2018-12-05T12:59:18.469Z,12.89
2018-12-05T13:00:28.553Z,12.73
2018-12-05T13:01:38.742Z,12.65
2018-12-05T13:02:49.047Z,12.62
2018-12-05T13:03:59.128Z,12.58
2018-12-05T13:05:09.210Z,12.45
2018-12-05T13:06:19.164Z,12.44
2018-12-05T13:07:29.528Z,12.45
2018-12-05T13:08:39.617Z,12.33
2018-12-05T13:09:49.675Z,12.29
2018-12-05T13:10:59.250Z,12.38
2018-12-05T13:12:10.866Z,12.2
2018-12-05T13:13:20.955Z,12.11
2018-12-05T13:14:31.124Z,12.11
2018-12-05T13:15:40.962Z,12.03
2018-12-05T13:16:51.053Z,11.97
2018-12-05T13:18:01.741Z,11.97
2018-12-05T13:19:11.902Z,11.86
2018-12-05T13:20:21.963Z,11.88
2018-12-05T13:21:32.118Z,11.86
2018-12-05T13:22:42.223Z,11.76
2018-12-05T13:23:52.046Z,11.78
2018-12-05T13:25:02.978Z,11.66
2018-12-05T13:26:13.059Z,11.73
2018-12-05T13:27:23.198Z,11.64
2018-12-05T13:28:32.997Z,11.59
2018-12-05T13:29:43.072Z,11.61
2018-12-05T13:30:52.947Z,11.63
2018-12-05T13:32:03.023Z,11.68
2018-12-05T13:33:13.090Z,11.63
2018-12-05T13:34:23.160Z,11.52
2018-12-05T13:35:33.262Z,11.53
2018-12-05T13:36:43.375Z,11.49
2018-12-05T13:37:53.789Z,11.51
2018-12-05T13:39:03.863Z,11.57
2018-12-05T13:40:13.682Z,11.42
2018-12-05T13:41:23.779Z,11.45
2018-12-05T13:42:33.970Z,11.42
2018-12-05T13:43:44.047Z,11.34
2018-12-05T13:44:54.124Z,11.33
2018-12-05T13:46:05.603Z,11.33
2018-12-05T13:47:15.691Z,11.3
2018-12-05T13:48:25.786Z,11.21
2018-12-05T13:49:35.961Z,11.28
2018-12-05T13:50:46.024Z,11.27
2018-12-05T13:51:55.830Z,11.26
2018-12-05T13:53:06.079Z,11.26
2018-12-05T13:54:16.419Z,11.21
2018-12-05T13:55:26.239Z,11.27
2018-12-05T13:56:36.043Z,11.2
2018-12-05T13:57:46.133Z,11.21
2018-12-05T13:58:56.299Z,11.13
2018-12-05T14:00:07.219Z,11.12
2018-12-05T14:01:17.543Z,11.03
2018-12-05T14:02:27.869Z,11.02
2018-12-05T14:03:37.981Z,11
2018-12-05T14:04:48.041Z,10.88
2018-12-05T14:05:58.384Z,10.9
2018-12-05T14:07:08.565Z,10.9
2018-12-05T14:08:18.660Z,10.92
2018-12-05T14:09:28.492Z,10.84
2018-12-05T14:10:38.590Z,10.79
2018-12-05T14:11:48.726Z,10.73
2018-12-05T14:12:58.796Z,10.67
2018-12-05T14:14:08.854Z,10.51
2018-12-05T14:15:19.029Z,10.42
2018-12-05T14:16:29.161Z,10.36
2018-12-05T14:17:39.127Z,10.23
2018-12-05T14:18:49.202Z,10.21
2018-12-05T14:19:59.023Z,10.1
2018-12-05T14:21:08.861Z,9.96
2018-12-05T14:22:18.701Z,9.92
2018-12-05T14:23:29.129Z,9.85
2018-12-05T14:24:39.455Z,9.75
2018-12-05T14:25:49.533Z,9.75
2018-12-05T14:26:59.344Z,9.67
2018-12-05T14:28:09.424Z,9.59
2018-12-05T14:29:19.587Z,9.7
2018-12-05T14:30:29.644Z,9.57
2018-12-05T14:31:39.974Z,9.55
2018-12-05T14:32:50.063Z,9.59
2018-12-05T14:34:00.957Z,9.52
2018-12-05T14:35:11.054Z,9.53
2018-12-05T14:36:21.129Z,9.44
2018-12-05T14:37:31.212Z,9.39
2018-12-05T14:38:41.393Z,9.38
2018-12-05T14:39:51.500Z,9.24
2018-12-05T14:41:01.599Z,9.2
2018-12-05T14:42:11.477Z,9.2
2018-12-05T14:43:21.287Z,9.11
2018-12-05T14:44:31.082Z,9.04
2018-12-05T14:45:41.186Z,8.89
2018-12-05T14:46:51.063Z,8.98
2018-12-05T14:48:02.977Z,8.82
2018-12-05T14:49:12.868Z,8.83
2018-12-05T14:50:23.045Z,8.76
2018-12-05T14:51:33.005Z,8.8
2018-12-05T14:52:43.075Z,8.65
2018-12-05T14:53:53.139Z,8.67
2018-12-05T14:55:03.250Z,8.58
2018-12-05T14:56:13.570Z,8.49
2018-12-05T14:57:23.139Z,8.52
2018-12-05T14:58:33.481Z,8.47
2018-12-05T14:59:43.566Z,8.34
2018-12-05T15:00:53.643Z,8.4
2018-12-05T15:02:04.092Z,8.24
2018-12-05T15:03:14.194Z,8.16
2018-12-05T15:04:24.051Z,8.24
2018-12-05T15:05:34.169Z,8.11
2018-12-05T15:06:51.705Z,8.07
2018-12-05T15:08:16.421Z,8.09
2018-12-05T15:09:26.609Z,8.01
2018-12-05T15:10:36.715Z,7.92
2018-12-05T15:11:46.792Z,7.91
2018-12-05T15:12:56.974Z,7.83
2018-12-05T15:14:08.304Z,7.86
2018-12-05T15:15:18.484Z,7.75
2018-12-05T15:16:28.587Z,7.74
2018-12-05T15:17:38.795Z,7.71
2018-12-05T15:18:48.899Z,7.58
2018-12-05T15:19:58.989Z,7.61
2018-12-05T15:21:09.187Z,7.54
2018-12-05T15:22:19.371Z,7.47
2018-12-05T15:23:29.449Z,7.45
2018-12-05T15:24:39.528Z,7.39
2018-12-05T15:25:49.350Z,7.36
2018-12-05T15:27:01.534Z,7.27
2018-12-05T15:28:11.430Z,7.19
2018-12-05T15:29:22.186Z,7.05
2018-12-05T15:30:33.923Z,7.01
2018-12-05T15:31:44.174Z,7.04
2018-12-05T15:32:54.297Z,7
2018-12-05T15:34:04.625Z,7.03
2018-12-05T15:35:14.696Z,6.98
2018-12-05T15:36:24.875Z,6.93
2018-12-05T15:37:34.683Z,6.85
2018-12-05T15:38:44.818Z,6.82
2018-12-05T15:39:54.890Z,6.78
2018-12-05T15:41:05.153Z,6.76
2018-12-05T15:42:14.836Z,6.75
2018-12-05T15:43:24.694Z,6.75
2018-12-05T15:44:34.831Z,6.73
2018-12-05T15:45:44.675Z,6.72
2018-12-05T15:46:54.752Z,6.7
2018-12-05T15:48:04.562Z,6.62
2018-12-05T15:49:14.653Z,6.6
2018-12-05T15:50:24.527Z,6.55
2018-12-05T15:51:34.404Z,6.52
2018-12-05T15:52:44.220Z,6.55
2018-12-05T15:53:54.305Z,6.47
2018-12-05T15:55:05.278Z,6.43
2018-12-05T15:56:15.412Z,6.46
2018-12-05T15:57:25.924Z,6.52
2018-12-05T15:58:36.292Z,6.49
2018-12-05T15:59:46.642Z,6.34